sensor_id;sensor_type;location;lat;lon;timestamp;pressure;altitude;pressure_sealevel;temperature;humidity
43298;BME280;28892;55.640;37.532;2023-04-29T00:01:03;98491.72;;;6.65;67.10
43298;BME280;28892;55.640;37.532;2023-04-29T00:03:30;98485.53;;;6.49;67.77
43298;BME280;28892;55.640;37.532;2023-04-29T00:05:59;98496.16;;;6.64;67.20
43298;BME280;28892;55.640;37.532;2023-04-29T00:08:26;98488.25;;;6.64;67.17
43298;BME280;28892;55.640;37.532;2023-04-29T00:10:54;98479.75;;;6.54;67.09
43298;BME280;28892;55.640;37.532;2023-04-29T00:13:59;98467.63;;;6.68;67.24
43298;BME280;28892;55.640;37.532;2023-04-29T00:20:24;98475.47;;;6.53;67.34
43298;BME280;28892;55.640;37.532;2023-04-29T00:22:51;98471.44;;;6.42;67.91
43298;BME280;28892;55.640;37.532;2023-04-29T00:25:17;98461.69;;;6.42;67.90
43298;BME280;28892;55.640;37.532;2023-04-29T00:27:43;98456.66;;;6.33;68.17
43298;BME280;28892;55.640;37.532;2023-04-29T00:30:09;98454.59;;;6.20;68.59
43298;BME280;28892;55.640;37.532;2023-04-29T00:32:35;98455.28;;;6.13;68.18
43298;BME280;28892;55.640;37.532;2023-04-29T00:35:01;98470.72;;;6.25;68.57
43298;BME280;28892;55.640;37.532;2023-04-29T00:37:30;98461.88;;;6.41;68.03
43298;BME280;28892;55.640;37.532;2023-04-29T00:39:56;98472.56;;;6.48;66.93
43298;BME280;28892;55.640;37.532;2023-04-29T00:42:22;98453.16;;;6.09;68.34
43298;BME280;28892;55.640;37.532;2023-04-29T00:44:48;98464.03;;;6.06;69.28
43298;BME280;28892;55.640;37.532;2023-04-29T00:47:14;98444.19;;;6.26;68.40
43298;BME280;28892;55.640;37.532;2023-04-29T00:49:40;98444.56;;;6.47;67.91
43298;BME280;28892;55.640;37.532;2023-04-29T00:52:10;98464.34;;;6.42;68.11
43298;BME280;28892;55.640;37.532;2023-04-29T00:54:36;98451.56;;;6.31;67.12
43298;BME280;28892;55.640;37.532;2023-04-29T00:57:03;98445.81;;;6.27;67.42
43298;BME280;28892;55.640;37.532;2023-04-29T00:59:32;98456.22;;;6.21;67.99
43298;BME280;28892;55.640;37.532;2023-04-29T01:02:00;98465.75;;;6.22;68.30
43298;BME280;28892;55.640;37.532;2023-04-29T01:04:27;98452.97;;;6.10;68.92
43298;BME280;28892;55.640;37.532;2023-04-29T01:12:07;98462.31;;;6.53;68.25
43298;BME280;28892;55.640;37.532;2023-04-29T01:14:38;98450.94;;;6.21;68.69
43298;BME280;28892;55.640;37.532;2023-04-29T01:17:10;98443.69;;;6.23;68.55
43298;BME280;28892;55.640;37.532;2023-04-29T01:19:43;98465.38;;;6.33;68.59
43298;BME280;28892;55.640;37.532;2023-04-29T01:22:12;98467.16;;;6.41;68.26
43298;BME280;28892;55.640;37.532;2023-04-29T01:24:44;98469.09;;;6.15;68.36
43298;BME280;28892;55.640;37.532;2023-04-29T01:27:13;98469.50;;;6.27;68.59
43298;BME280;28892;55.640;37.532;2023-04-29T01:35:21;98462.97;;;6.23;67.25
43298;BME280;28892;55.640;37.532;2023-04-29T01:37:56;98446.94;;;6.33;67.44
43298;BME280;28892;55.640;37.532;2023-04-29T01:40:47;98453.13;;;6.49;67.31
43298;BME280;28892;55.640;37.532;2023-04-29T01:43:24;98446.41;;;6.38;66.92
43298;BME280;28892;55.640;37.532;2023-04-29T01:45:55;98447.00;;;6.25;66.96
43298;BME280;28892;55.640;37.532;2023-04-29T01:48:23;98451.22;;;5.94;67.75
43298;BME280;28892;55.640;37.532;2023-04-29T01:50:49;98464.56;;;5.93;67.61
43298;BME280;28892;55.640;37.532;2023-04-29T01:53:16;98469.09;;;6.15;67.35
43298;BME280;28892;55.640;37.532;2023-04-29T01:55:43;98473.66;;;6.22;67.14
43298;BME280;28892;55.640;37.532;2023-04-29T01:58:16;98464.63;;;6.16;66.93
43298;BME280;28892;55.640;37.532;2023-04-29T02:00:53;98469.28;;;6.06;67.11
43298;BME280;28892;55.640;37.532;2023-04-29T02:03:20;98476.00;;;6.17;67.46
43298;BME280;28892;55.640;37.532;2023-04-29T02:05:50;98469.78;;;6.09;67.52
43298;BME280;28892;55.640;37.532;2023-04-29T02:08:17;98454.09;;;6.16;66.85
43298;BME280;28892;55.640;37.532;2023-04-29T02:10:55;98470.63;;;6.33;67.25
43298;BME280;28892;55.640;37.532;2023-04-29T02:13:42;98471.16;;;6.28;67.49
43298;BME280;28892;55.640;37.532;2023-04-29T02:16:09;98479.53;;;6.32;66.83
43298;BME280;28892;55.640;37.532;2023-04-29T02:18:38;98465.72;;;6.30;66.69
43298;BME280;28892;55.640;37.532;2023-04-29T02:21:05;98472.47;;;6.33;66.70
43298;BME280;28892;55.640;37.532;2023-04-29T02:23:34;98465.16;;;6.43;66.61
43298;BME280;28892;55.640;37.532;2023-04-29T02:26:00;98453.06;;;6.25;66.93
43298;BME280;28892;55.640;37.532;2023-04-29T02:28:26;98469.34;;;6.29;67.23
43298;BME280;28892;55.640;37.532;2023-04-29T02:30:52;98468.16;;;6.40;67.07
43298;BME280;28892;55.640;37.532;2023-04-29T02:33:19;98467.19;;;6.33;66.51
43298;BME280;28892;55.640;37.532;2023-04-29T02:35:45;98474.28;;;6.32;67.07
43298;BME280;28892;55.640;37.532;2023-04-29T02:38:11;98478.91;;;6.30;67.09
43298;BME280;28892;55.640;37.532;2023-04-29T02:40:41;98486.63;;;6.32;66.89
43298;BME280;28892;55.640;37.532;2023-04-29T02:43:10;98499.44;;;6.35;67.38
43298;BME280;28892;55.640;37.532;2023-04-29T02:45:37;98501.56;;;6.39;67.37
43298;BME280;28892;55.640;37.532;2023-04-29T02:48:05;98506.47;;;6.42;67.47
43298;BME280;28892;55.640;37.532;2023-04-29T02:50:34;98511.34;;;6.31;67.21
43298;BME280;28892;55.640;37.532;2023-04-29T02:53:01;98504.59;;;6.28;66.71
43298;BME280;28892;55.640;37.532;2023-04-29T02:55:27;98508.09;;;6.20;67.38
43298;BME280;28892;55.640;37.532;2023-04-29T02:58:23;98524.75;;;6.44;66.64
43298;BME280;28892;55.640;37.532;2023-04-29T03:01:22;98530.03;;;6.44;66.40
43298;BME280;28892;55.640;37.532;2023-04-29T03:04:04;98543.31;;;6.59;66.92
43298;BME280;28892;55.640;37.532;2023-04-29T03:07:00;98546.44;;;6.54;67.02
43298;BME280;28892;55.640;37.532;2023-04-29T03:09:26;98536.41;;;6.18;67.12
43298;BME280;28892;55.640;37.532;2023-04-29T03:12:07;98534.69;;;6.34;67.71
43298;BME280;28892;55.640;37.532;2023-04-29T03:14:44;98536.31;;;6.35;67.25
43298;BME280;28892;55.640;37.532;2023-04-29T03:17:32;98544.91;;;6.28;67.74
43298;BME280;28892;55.640;37.532;2023-04-29T03:20:05;98553.38;;;6.47;67.57
43298;BME280;28892;55.640;37.532;2023-04-29T03:22:38;98554.97;;;6.25;67.11
43298;BME280;28892;55.640;37.532;2023-04-29T03:25:29;98566.44;;;6.40;67.13
43298;BME280;28892;55.640;37.532;2023-04-29T03:27:56;98569.56;;;6.36;67.41
43298;BME280;28892;55.640;37.532;2023-04-29T03:30:22;98578.94;;;6.47;67.02
43298;BME280;28892;55.640;37.532;2023-04-29T03:32:51;98568.78;;;6.35;67.92
43298;BME280;28892;55.640;37.532;2023-04-29T03:35:27;98566.44;;;6.40;67.27
43298;BME280;28892;55.640;37.532;2023-04-29T03:38:12;98587.09;;;6.20;67.35
43298;BME280;28892;55.640;37.532;2023-04-29T03:40:38;98587.75;;;6.14;67.01
43298;BME280;28892;55.640;37.532;2023-04-29T03:43:07;98592.38;;;6.12;67.43
43298;BME280;28892;55.640;37.532;2023-04-29T03:45:34;98605.03;;;6.17;67.58
43298;BME280;28892;55.640;37.532;2023-04-29T03:48:01;98591.38;;;6.21;67.07
43298;BME280;28892;55.640;37.532;2023-04-29T03:50:28;98583.19;;;6.08;66.39
43298;BME280;28892;55.640;37.532;2023-04-29T03:52:54;98587.09;;;6.12;67.31
43298;BME280;28892;55.640;37.532;2023-04-29T03:55:21;98585.31;;;6.12;67.53
43298;BME280;28892;55.640;37.532;2023-04-29T03:57:47;98592.88;;;6.07;67.60
43298;BME280;28892;55.640;37.532;2023-04-29T04:00:15;98583.50;;;6.05;67.53
43298;BME280;28892;55.640;37.532;2023-04-29T04:02:49;98589.09;;;6.10;67.52
43298;BME280;28892;55.640;37.532;2023-04-29T04:05:15;98605.69;;;6.19;67.64
43298;BME280;28892;55.640;37.532;2023-04-29T04:07:48;98609.28;;;6.26;67.18
43298;BME280;28892;55.640;37.532;2023-04-29T04:10:32;98601.59;;;5.99;66.91
43298;BME280;28892;55.640;37.532;2023-04-29T04:13:01;98600.63;;;6.09;67.13
43298;BME280;28892;55.640;37.532;2023-04-29T04:15:27;98596.66;;;6.05;67.20
43298;BME280;28892;55.640;37.532;2023-04-29T04:18:01;98599.16;;;5.73;67.51
43298;BME280;28892;55.640;37.532;2023-04-29T04:20:27;98602.59;;;5.90;67.19
43298;BME280;28892;55.640;37.532;2023-04-29T04:23:01;98609.50;;;6.08;67.27
43298;BME280;28892;55.640;37.532;2023-04-29T04:25:36;98602.56;;;6.15;66.91
43298;BME280;28892;55.640;37.532;2023-04-29T04:28:22;98605.34;;;6.22;67.15
43298;BME280;28892;55.640;37.532;2023-04-29T04:30:57;98595.63;;;6.22;66.84
43298;BME280;28892;55.640;37.532;2023-04-29T04:33:24;98604.69;;;6.28;66.13
43298;BME280;28892;55.640;37.532;2023-04-29T04:35:52;98601.69;;;6.31;65.59
43298;BME280;28892;55.640;37.532;2023-04-29T04:38:18;98596.28;;;6.24;65.58
43298;BME280;28892;55.640;37.532;2023-04-29T04:40:56;98592.00;;;6.32;65.68
43298;BME280;28892;55.640;37.532;2023-04-29T04:43:44;98583.88;;;6.41;64.87
43298;BME280;28892;55.640;37.532;2023-04-29T04:46:21;98582.88;;;6.42;64.98
43298;BME280;28892;55.640;37.532;2023-04-29T04:49:03;98588.66;;;6.38;65.36
43298;BME280;28892;55.640;37.532;2023-04-29T04:51:33;98598.53;;;6.44;65.58
43298;BME280;28892;55.640;37.532;2023-04-29T04:53:59;98597.56;;;6.28;65.27
43298;BME280;28892;55.640;37.532;2023-04-29T04:56:33;98608.09;;;6.37;65.38
43298;BME280;28892;55.640;37.532;2023-04-29T04:59:05;98590.66;;;6.36;65.89
43298;BME280;28892;55.640;37.532;2023-04-29T05:01:35;98595.03;;;6.52;66.29
43298;BME280;28892;55.640;37.532;2023-04-29T05:04:04;98593.03;;;6.54;66.15
43298;BME280;28892;55.640;37.532;2023-04-29T05:06:33;98593.19;;;6.61;65.98
43298;BME280;28892;55.640;37.532;2023-04-29T05:09:02;98597.38;;;6.47;65.66
43298;BME280;28892;55.640;37.532;2023-04-29T05:11:28;98606.19;;;6.62;65.75
43298;BME280;28892;55.640;37.532;2023-04-29T05:14:12;98608.56;;;6.80;65.68
43298;BME280;28892;55.640;37.532;2023-04-29T05:16:38;98597.38;;;6.78;65.64
43298;BME280;28892;55.640;37.532;2023-04-29T05:19:06;98598.22;;;6.79;65.47
43298;BME280;28892;55.640;37.532;2023-04-29T05:21:41;98598.13;;;6.64;65.44
43298;BME280;28892;55.640;37.532;2023-04-29T05:24:09;98612.06;;;6.73;66.22
43298;BME280;28892;55.640;37.532;2023-04-29T05:26:35;98609.28;;;6.74;66.37
43298;BME280;28892;55.640;37.532;2023-04-29T05:29:05;98612.66;;;6.91;66.29
43298;BME280;28892;55.640;37.532;2023-04-29T05:31:41;98608.06;;;7.17;65.30
43298;BME280;28892;55.640;37.532;2023-04-29T05:34:08;98613.34;;;7.17;65.56
43298;BME280;28892;55.640;37.532;2023-04-29T05:36:34;98620.25;;;7.18;65.85
43298;BME280;28892;55.640;37.532;2023-04-29T05:43:41;98622.81;;;7.49;64.55
43298;BME280;28892;55.640;37.532;2023-04-29T05:46:08;98631.97;;;7.38;64.23
43298;BME280;28892;55.640;37.532;2023-04-29T05:48:59;98643.81;;;7.66;63.83
43298;BME280;28892;55.640;37.532;2023-04-29T05:51:28;98632.97;;;7.61;62.62
43298;BME280;28892;55.640;37.532;2023-04-29T05:54:14;98630.09;;;7.71;62.70
43298;BME280;28892;55.640;37.532;2023-04-29T05:56:40;98633.72;;;7.69;62.62
43298;BME280;28892;55.640;37.532;2023-04-29T05:59:08;98641.88;;;7.60;62.72
43298;BME280;28892;55.640;37.532;2023-04-29T06:01:34;98647.69;;;7.55;62.28
43298;BME280;28892;55.640;37.532;2023-04-29T06:04:02;98659.53;;;7.36;62.93
43298;BME280;28892;55.640;37.532;2023-04-29T06:06:50;98663.88;;;7.52;62.56
43298;BME280;28892;55.640;37.532;2023-04-29T06:12:53;98660.50;;;7.58;61.51
43298;BME280;28892;55.640;37.532;2023-04-29T06:15:20;98676.25;;;7.75;61.53
43298;BME280;28892;55.640;37.532;2023-04-29T06:17:46;98669.59;;;7.79;61.11
43298;BME280;28892;55.640;37.532;2023-04-29T06:20:13;98684.06;;;7.91;61.61
43298;BME280;28892;55.640;37.532;2023-04-29T06:22:39;98685.59;;;8.01;61.48
43298;BME280;28892;55.640;37.532;2023-04-29T06:25:15;98694.47;;;8.08;61.05
43298;BME280;28892;55.640;37.532;2023-04-29T06:27:49;98677.75;;;7.92;60.95
43298;BME280;28892;55.640;37.532;2023-04-29T06:30:25;98690.03;;;7.85;61.46
43298;BME280;28892;55.640;37.532;2023-04-29T06:32:52;98685.00;;;7.75;60.88
43298;BME280;28892;55.640;37.532;2023-04-29T06:35:28;98691.59;;;7.94;60.80
43298;BME280;28892;55.640;37.532;2023-04-29T06:38:13;98688.53;;;8.06;60.54
43298;BME280;28892;55.640;37.532;2023-04-29T06:40:42;98704.22;;;8.07;61.33
43298;BME280;28892;55.640;37.532;2023-04-29T06:43:13;98708.59;;;8.15;61.07
43298;BME280;28892;55.640;37.532;2023-04-29T06:46:22;98712.63;;;8.26;60.64
43298;BME280;28892;55.640;37.532;2023-04-29T06:48:59;98695.13;;;8.25;60.14
43298;BME280;28892;55.640;37.532;2023-04-29T06:51:56;98722.00;;;8.29;61.75
43298;BME280;28892;55.640;37.532;2023-04-29T06:54:26;98711.69;;;8.04;60.54
43298;BME280;28892;55.640;37.532;2023-04-29T06:56:54;98712.31;;;8.06;60.90
43298;BME280;28892;55.640;37.532;2023-04-29T06:59:20;98716.00;;;8.20;60.00
43298;BME280;28892;55.640;37.532;2023-04-29T07:01:50;98722.94;;;8.36;60.86
43298;BME280;28892;55.640;37.532;2023-04-29T07:04:19;98716.84;;;8.35;59.54
43298;BME280;28892;55.640;37.532;2023-04-29T07:06:50;98730.38;;;8.56;59.00
43298;BME280;28892;55.640;37.532;2023-04-29T07:09:17;98730.81;;;8.59;59.56
43298;BME280;28892;55.640;37.532;2023-04-29T07:11:46;98734.94;;;8.77;58.89
43298;BME280;28892;55.640;37.532;2023-04-29T07:14:12;98730.22;;;8.87;59.15
43298;BME280;28892;55.640;37.532;2023-04-29T07:17:04;98738.59;;;8.76;58.62
43298;BME280;28892;55.640;37.532;2023-04-29T07:23:11;98743.84;;;9.21;59.14
43298;BME280;28892;55.640;37.532;2023-04-29T07:30:11;98741.22;;;9.58;57.78
43298;BME280;28892;55.640;37.532;2023-04-29T07:32:59;98761.91;;;9.69;56.91
43298;BME280;28892;55.640;37.532;2023-04-29T07:35:31;98761.31;;;9.52;58.15
43298;BME280;28892;55.640;37.532;2023-04-29T07:38:01;98757.88;;;9.36;57.36
43298;BME280;28892;55.640;37.532;2023-04-29T07:40:38;98757.06;;;9.21;57.56
43298;BME280;28892;55.640;37.532;2023-04-29T07:43:09;98763.03;;;9.23;57.21
43298;BME280;28892;55.640;37.532;2023-04-29T07:45:35;98776.56;;;9.50;57.28
43298;BME280;28892;55.640;37.532;2023-04-29T07:48:09;98773.22;;;9.78;56.80
43298;BME280;28892;55.640;37.532;2023-04-29T07:50:52;98764.31;;;9.86;57.35
43298;BME280;28892;55.640;37.532;2023-04-29T07:53:25;98771.31;;;10.15;55.37
43298;BME280;28892;55.640;37.532;2023-04-29T07:55:54;98778.03;;;10.11;56.44
43298;BME280;28892;55.640;37.532;2023-04-29T07:58:23;98781.94;;;10.15;54.86
43298;BME280;28892;55.640;37.532;2023-04-29T08:01:08;98769.03;;;10.34;55.18
43298;BME280;28892;55.640;37.532;2023-04-29T08:04:02;98781.34;;;10.20;54.85
43298;BME280;28892;55.640;37.532;2023-04-29T08:07:03;98785.56;;;10.86;54.43
43298;BME280;28892;55.640;37.532;2023-04-29T08:09:33;98784.28;;;10.75;53.86
43298;BME280;28892;55.640;37.532;2023-04-29T08:12:18;98786.41;;;10.94;54.55
43298;BME280;28892;55.640;37.532;2023-04-29T08:15:27;98784.69;;;11.14;53.69
43298;BME280;28892;55.640;37.532;2023-04-29T08:18:04;98794.72;;;11.19;53.88
43298;BME280;28892;55.640;37.532;2023-04-29T08:20:51;98797.63;;;11.31;52.79
43298;BME280;28892;55.640;37.532;2023-04-29T08:23:56;98805.91;;;11.56;51.82
43298;BME280;28892;55.640;37.532;2023-04-29T08:26:29;98814.97;;;11.76;52.60
43298;BME280;28892;55.640;37.532;2023-04-29T08:29:07;98807.13;;;12.29;49.72
43298;BME280;28892;55.640;37.532;2023-04-29T08:31:54;98803.03;;;12.54;50.14
43298;BME280;28892;55.640;37.532;2023-04-29T08:34:22;98798.16;;;12.31;50.40
43298;BME280;28892;55.640;37.532;2023-04-29T08:36:48;98798.34;;;12.29;49.52
43298;BME280;28892;55.640;37.532;2023-04-29T08:39:15;98799.97;;;12.23;49.98
43298;BME280;28892;55.640;37.532;2023-04-29T08:41:41;98804.56;;;11.74;49.27
43298;BME280;28892;55.640;37.532;2023-04-29T08:44:13;98806.94;;;12.51;48.72
43298;BME280;28892;55.640;37.532;2023-04-29T08:46:45;98802.16;;;13.14;47.82
43298;BME280;28892;55.640;37.532;2023-04-29T08:49:12;98793.13;;;13.74;46.56
43298;BME280;28892;55.640;37.532;2023-04-29T08:51:38;98804.06;;;14.56;45.04
43298;BME280;28892;55.640;37.532;2023-04-29T09:01:43;98819.94;;;16.18;40.77
43298;BME280;28892;55.640;37.532;2023-04-29T09:04:47;98820.66;;;16.26;41.15
43298;BME280;28892;55.640;37.532;2023-04-29T09:07:19;98806.22;;;16.27;41.26
43298;BME280;28892;55.640;37.532;2023-04-29T09:09:46;98805.00;;;16.53;40.22
43298;BME280;28892;55.640;37.532;2023-04-29T09:12:13;98807.69;;;16.11;38.96
43298;BME280;28892;55.640;37.532;2023-04-29T09:14:50;98812.94;;;15.56;40.30
43298;BME280;28892;55.640;37.532;2023-04-29T09:17:44;98828.84;;;14.63;40.95
43298;BME280;28892;55.640;37.532;2023-04-29T09:22:52;98840.38;;;13.40;42.13
43298;BME280;28892;55.640;37.532;2023-04-29T09:25:25;98846.81;;;12.98;43.23
43298;BME280;28892;55.640;37.532;2023-04-29T09:27:54;98848.88;;;12.96;43.61
43298;BME280;28892;55.640;37.532;2023-04-29T09:30:21;98845.16;;;13.83;42.36
43298;BME280;28892;55.640;37.532;2023-04-29T09:33:04;98835.88;;;15.08;40.67
43298;BME280;28892;55.640;37.532;2023-04-29T09:35:32;98838.25;;;15.54;39.28
43298;BME280;28892;55.640;37.532;2023-04-29T09:38:11;98833.28;;;15.57;38.34
43298;BME280;28892;55.640;37.532;2023-04-29T09:40:44;98831.03;;;15.73;35.78
43298;BME280;28892;55.640;37.532;2023-04-29T09:43:27;98822.78;;;15.93;37.33
43298;BME280;28892;55.640;37.532;2023-04-29T09:45:56;98850.84;;;15.84;39.00
43298;BME280;28892;55.640;37.532;2023-04-29T09:48:29;98846.56;;;16.56;39.65
43298;BME280;28892;55.640;37.532;2023-04-29T09:51:01;98843.47;;;16.40;37.26
43298;BME280;28892;55.640;37.532;2023-04-29T09:53:30;98856.38;;;16.31;37.72
43298;BME280;28892;55.640;37.532;2023-04-29T09:56:48;98847.66;;;17.02;37.95
43298;BME280;28892;55.640;37.532;2023-04-29T09:59:21;98846.91;;;17.43;34.65
43298;BME280;28892;55.640;37.532;2023-04-29T10:02:18;98858.81;;;17.11;34.19
43298;BME280;28892;55.640;37.532;2023-04-29T10:04:55;98850.75;;;17.47;34.75
43298;BME280;28892;55.640;37.532;2023-04-29T10:08:13;98865.53;;;17.91;33.03
43298;BME280;28892;55.640;37.532;2023-04-29T10:17:36;98865.31;;;15.95;36.07
43298;BME280;28892;55.640;37.532;2023-04-29T10:32:47;98888.63;;;13.91;38.35
43298;BME280;28892;55.640;37.532;2023-04-29T10:35:18;98889.09;;;13.67;38.75
43298;BME280;28892;55.640;37.532;2023-04-29T10:38:10;98892.38;;;13.69;39.51
43298;BME280;28892;55.640;37.532;2023-04-29T10:41:19;98904.00;;;13.89;39.60
43298;BME280;28892;55.640;37.532;2023-04-29T10:44:12;98911.59;;;13.85;39.63
43298;BME280;28892;55.640;37.532;2023-04-29T10:46:41;98918.13;;;13.89;38.87
43298;BME280;28892;55.640;37.532;2023-04-29T10:49:09;98909.88;;;14.04;39.64
43298;BME280;28892;55.640;37.532;2023-04-29T10:51:43;98898.50;;;14.22;37.96
43298;BME280;28892;55.640;37.532;2023-04-29T10:54:17;98890.94;;;14.19;39.02
43298;BME280;28892;55.640;37.532;2023-04-29T10:56:52;98899.09;;;14.24;38.14
43298;BME280;28892;55.640;37.532;2023-04-29T10:59:21;98906.09;;;14.19;38.40
43298;BME280;28892;55.640;37.532;2023-04-29T11:01:51;98902.75;;;13.91;39.18
43298;BME280;28892;55.640;37.532;2023-04-29T11:04:21;98922.44;;;13.90;38.30
43298;BME280;28892;55.640;37.532;2023-04-29T11:06:57;98914.69;;;13.82;36.71
43298;BME280;28892;55.640;37.532;2023-04-29T11:09:34;98930.97;;;13.60;37.63
43298;BME280;28892;55.640;37.532;2023-04-29T11:12:04;98927.53;;;13.99;36.96
43298;BME280;28892;55.640;37.532;2023-04-29T11:14:49;98915.69;;;14.65;35.95
43298;BME280;28892;55.640;37.532;2023-04-29T11:17:23;98930.38;;;15.51;34.77
43298;BME280;28892;55.640;37.532;2023-04-29T11:19:50;98926.38;;;15.42;35.20
43298;BME280;28892;55.640;37.532;2023-04-29T11:24:55;98921.56;;;15.06;36.63
43298;BME280;28892;55.640;37.532;2023-04-29T11:27:30;98918.94;;;15.25;35.39
43298;BME280;28892;55.640;37.532;2023-04-29T11:29:58;98932.28;;;15.44;34.63
43298;BME280;28892;55.640;37.532;2023-04-29T11:32:38;98934.03;;;15.57;35.13
43298;BME280;28892;55.640;37.532;2023-04-29T11:35:31;98929.19;;;15.65;34.63
43298;BME280;28892;55.640;37.532;2023-04-29T11:38:40;98939.34;;;16.31;34.26
43298;BME280;28892;55.640;37.532;2023-04-29T11:41:06;98898.06;;;16.39;32.25
43298;BME280;28892;55.640;37.532;2023-04-29T11:47:03;98923.63;;;16.54;32.73
43298;BME280;28892;55.640;37.532;2023-04-29T11:50:08;98924.31;;;16.61;33.00
43298;BME280;28892;55.640;37.532;2023-04-29T12:03:26;98912.63;;;18.10;30.39
43298;BME280;28892;55.640;37.532;2023-04-29T12:06:05;98917.97;;;16.98;29.81
43298;BME280;28892;55.640;37.532;2023-04-29T12:08:31;98914.53;;;16.24;30.09
43298;BME280;28892;55.640;37.532;2023-04-29T12:10:59;98923.56;;;15.74;31.19
43298;BME280;28892;55.640;37.532;2023-04-29T12:13:28;98911.47;;;15.90;32.75
43298;BME280;28892;55.640;37.532;2023-04-29T12:15:58;98910.56;;;16.15;31.16
43298;BME280;28892;55.640;37.532;2023-04-29T12:18:27;98909.69;;;16.75;30.29
43298;BME280;28892;55.640;37.532;2023-04-29T12:20:56;98917.38;;;16.84;30.33
43298;BME280;28892;55.640;37.532;2023-04-29T12:23:24;98903.03;;;16.24;30.41
43298;BME280;28892;55.640;37.532;2023-04-29T12:25:56;98915.25;;;16.01;30.70
43298;BME280;28892;55.640;37.532;2023-04-29T12:28:26;98913.47;;;16.25;31.13
43298;BME280;28892;55.640;37.532;2023-04-29T12:30:53;98895.69;;;15.82;30.99
43298;BME280;28892;55.640;37.532;2023-04-29T12:33:28;98922.44;;;15.44;31.74
43298;BME280;28892;55.640;37.532;2023-04-29T12:36:00;98908.63;;;15.47;32.03
43298;BME280;28892;55.640;37.532;2023-04-29T12:38:30;98916.94;;;15.39;31.51
43298;BME280;28892;55.640;37.532;2023-04-29T12:41:03;98913.97;;;15.29;32.21
43298;BME280;28892;55.640;37.532;2023-04-29T12:43:41;98920.78;;;14.99;32.62
43298;BME280;28892;55.640;37.532;2023-04-29T12:46:09;98925.44;;;14.85;32.62
43298;BME280;28892;55.640;37.532;2023-04-29T12:48:42;98917.63;;;14.84;32.37
43298;BME280;28892;55.640;37.532;2023-04-29T12:51:11;98918.81;;;14.88;32.22
43298;BME280;28892;55.640;37.532;2023-04-29T12:53:38;98913.94;;;14.85;33.09
43298;BME280;28892;55.640;37.532;2023-04-29T12:56:04;98913.34;;;14.83;33.42
43298;BME280;28892;55.640;37.532;2023-04-29T12:58:31;98912.75;;;14.80;33.25
43298;BME280;28892;55.640;37.532;2023-04-29T13:01:01;98901.81;;;15.07;32.27
43298;BME280;28892;55.640;37.532;2023-04-29T13:03:27;98916.91;;;15.20;33.38
43298;BME280;28892;55.640;37.532;2023-04-29T13:05:53;98899.03;;;15.21;31.64
43298;BME280;28892;55.640;37.532;2023-04-29T13:08:19;98900.19;;;14.81;31.95
43298;BME280;28892;55.640;37.532;2023-04-29T13:10:46;98907.09;;;14.63;32.76
43298;BME280;28892;55.640;37.532;2023-04-29T13:13:11;98906.19;;;14.70;31.89
43298;BME280;28892;55.640;37.532;2023-04-29T13:15:38;98906.75;;;14.46;33.51
43298;BME280;28892;55.640;37.532;2023-04-29T13:18:04;98902.06;;;14.48;33.46
43298;BME280;28892;55.640;37.532;2023-04-29T13:20:30;98904.19;;;14.65;31.85
43298;BME280;28892;55.640;37.532;2023-04-29T13:22:58;98894.97;;;14.61;31.58
43298;BME280;28892;55.640;37.532;2023-04-29T13:25:24;98903.72;;;14.43;33.02
43298;BME280;28892;55.640;37.532;2023-04-29T13:27:50;98905.19;;;14.38;32.75
43298;BME280;28892;55.640;37.532;2023-04-29T13:30:16;98910.47;;;14.45;32.75
43298;BME280;28892;55.640;37.532;2023-04-29T13:32:42;98909.13;;;14.61;32.46
43298;BME280;28892;55.640;37.532;2023-04-29T13:35:09;98903.78;;;14.61;32.44
43298;BME280;28892;55.640;37.532;2023-04-29T13:37:36;98898.63;;;14.66;32.12
43298;BME280;28892;55.640;37.532;2023-04-29T13:40:03;98898.34;;;14.82;33.11
43298;BME280;28892;55.640;37.532;2023-04-29T13:42:30;98893.72;;;14.96;31.98
43298;BME280;28892;55.640;37.532;2023-04-29T13:44:56;98899.66;;;14.98;32.53
43298;BME280;28892;55.640;37.532;2023-04-29T13:47:22;98894.72;;;14.94;31.62
43298;BME280;28892;55.640;37.532;2023-04-29T13:49:48;98899.00;;;15.02;31.47
43298;BME280;28892;55.640;37.532;2023-04-29T13:52:26;98898.22;;;15.20;30.62
43298;BME280;28892;55.640;37.532;2023-04-29T13:55:22;98908.13;;;15.13;30.38
43298;BME280;28892;55.640;37.532;2023-04-29T13:58:02;98903.25;;;15.10;30.44
43298;BME280;28892;55.640;37.532;2023-04-29T14:00:30;98904.50;;;15.07;31.77
43298;BME280;28892;55.640;37.532;2023-04-29T14:03:23;98908.63;;;15.47;31.88
43298;BME280;28892;55.640;37.532;2023-04-29T14:05:48;98895.53;;;15.20;30.04
43298;BME280;28892;55.640;37.532;2023-04-29T14:08:15;98895.94;;;15.24;30.50
43298;BME280;28892;55.640;37.532;2023-04-29T14:10:41;98894.22;;;15.30;30.19
43298;BME280;28892;55.640;37.532;2023-04-29T14:13:07;98885.00;;;15.26;29.95
43298;BME280;28892;55.640;37.532;2023-04-29T14:15:33;98886.25;;;15.04;31.30
43298;BME280;28892;55.640;37.532;2023-04-29T14:18:24;98900.38;;;15.30;31.14
43298;BME280;28892;55.640;37.532;2023-04-29T14:20:52;98888.16;;;14.97;30.68
43298;BME280;28892;55.640;37.532;2023-04-29T14:23:19;98896.34;;;15.02;30.56
43298;BME280;28892;55.640;37.532;2023-04-29T14:25:46;98896.28;;;15.09;30.54
43298;BME280;28892;55.640;37.532;2023-04-29T14:28:12;98890.41;;;15.19;29.97
43298;BME280;28892;55.640;37.532;2023-04-29T14:30:41;98884.84;;;15.20;30.23
43298;BME280;28892;55.640;37.532;2023-04-29T14:33:08;98883.81;;;15.21;30.49
43298;BME280;28892;55.640;37.532;2023-04-29T14:35:34;98882.31;;;15.07;30.01
43298;BME280;28892;55.640;37.532;2023-04-29T14:38:06;98885.59;;;15.09;31.78
43298;BME280;28892;55.640;37.532;2023-04-29T14:40:34;98889.25;;;14.89;31.35
43298;BME280;28892;55.640;37.532;2023-04-29T14:43:02;98893.50;;;14.65;31.30